Terminal Aerodrome Forecast
Issued by NWS

Home | Current Version | Previous Version | Text Only | Print | Product List | Glossary On
Versions: 1 2 3 4 5 6 7 8 9 10 11 12 13 14 15 16 17 18 19 20 21 22 23 24
000
FTUS43 KILX 072346
TAFCMI
TAF
KCMI 072346Z 0800/0824 02010KT P6SM BKN035
     FM080300 03007KT 6SM HZ SCT035 BKN050
     FM080800 05006KT 4SM BR SCT025 BKN100
     FM081200 06005KT 3SM -SHRA BR SCT007 OVC012
     FM081800 11007KT 4SM -RA BR OVC007=

USA.gov is the U.S. government's official web portal to all federal, state and local government web resources and services.